Mansfield, Missouri
Current Conditions -  °F | °C
As of 2:53 AM on Friday 31 Oct 2014 (Local Time) from KUNO Reporting Station
Clear Clear  
Wind Chill: 50°   Ceiling: Unl
Heat Index: 50°   Visibility: 10mi
Dew Point: 41°   Wind: 8mph
Humidity: 71%   Direction: 340°NNW
Pressure: 30.07"   Gusts: NA
Location:  37.11°N, 92.58°W
Report Text: KUNO 310753Z AUTO 34007KT 10SM CLR 10/05 A3007 RMK AO2 SLP179 T01000050
Loading
Personal Weather Stations






























Interactive Weather Map
Tropical Storm Tracking
New forecast layout! Learn more

10-Day Weather Forecast

Advertisements
Track Severe Weather on mobile